Pos'Et, Russia
Current Conditions -  °F | °C
As of 4:00 AM on Tuesday 25 Nov 2014 (Local Time) from UHWW Reporting Station
Clear Clear  
Wind Chill: 15°   Ceiling: Unl
Heat Index: 23°   Visibility: 6mi
Dew Point: 14°   Wind: 7mph
Humidity: 68%   Direction: 340°NNW
Pressure: 30.3"   Gusts: NA
Location:  42.65°N, 130.8°E
Report Text: UHWW 241800Z 34003MPS 9999 SKC M05/M10 Q1026 NOSIG RMKQFE769/1025 57CLRD70
Loading
Personal Weather Stations






























Interactive Weather Map New forecast layout! Learn more

10-Day Weather Forecast

Advertisements
Track Severe Weather on mobile